Time,TemperatureF,DewpointF,PressureIn,WindDirection,WindDirectionDegrees,WindSpeedMPH,WindSpeedGustMPH,Humidity,HourlyPrecipIn,Conditions,Clouds,dailyrainin,SolarRadiationWatts/m^2,SoftwareType,DateUTC
2013-11-18 00:02:00,68.0,68.0,-100.00,South,176,6.0,12.0,99,0.00,,,0.02,0.000000,,2013-11-18 05:02:00,
2013-11-18 00:12:00,68.0,68.0,-100.00,South,176,6.0,12.0,99,0.00,,,0.02,0.000000,,2013-11-18 05:12:00,
2013-11-18 00:43:00,68.0,68.0,-100.00,SSW,213,5.0,13.0,99,0.02,,,0.04,0.000000,,2013-11-18 05:43:00,
2013-11-18 00:53:00,68.0,68.0,-100.00,SSW,213,5.0,13.0,99,0.02,,,0.04,0.000000,,2013-11-18 05:53:00,
2013-11-18 01:02:00,68.0,68.0,-100.00,SSW,213,5.0,13.0,99,0.02,,,0.04,0.000000,,2013-11-18 06:02:00,
2013-11-18 01:12:00,68.0,68.0,-100.00,SSW,213,5.0,13.0,99,0.02,,,0.04,0.000000,,2013-11-18 06:12:00,
2013-11-18 01:42:00,68.0,68.0,-100.00,SSW,210,4.0,11.0,99,0.01,,,0.05,0.000000,,2013-11-18 06:42:00,
2013-11-18 01:52:00,68.0,68.0,-100.00,SSW,210,4.0,11.0,99,0.01,,,0.05,0.000000,,2013-11-18 06:52:00,
2013-11-18 02:01:00,68.0,68.0,-100.00,SSW,210,4.0,11.0,99,0.01,,,0.05,0.000000,,2013-11-18 07:01:00,
2013-11-18 02:12:00,68.0,68.0,-100.00,SSW,210,4.0,11.0,99,0.01,,,0.05,0.000000,,2013-11-18 07:12:00,
2013-11-18 02:42:00,69.0,68.0,-100.00,SW,215,4.0,11.0,97,0.00,,,0.05,0.000000,,2013-11-18 07:42:00,
2013-11-18 02:52:00,69.0,68.0,-100.00,SW,215,4.0,11.0,97,0.00,,,0.05,0.000000,,2013-11-18 07:52:00,
2013-11-18 03:02:00,69.0,68.0,-100.00,SW,215,4.0,11.0,97,0.00,,,0.05,0.000000,,2013-11-18 08:02:00,
2013-11-18 03:11:00,69.0,68.0,-100.00,SW,215,4.0,11.0,97,0.00,,,0.05,0.000000,,2013-11-18 08:11:00,
2013-11-18 03:42:00,70.0,69.0,-100.00,SW,230,4.0,9.0,98,0.00,,,0.05,0.000000,,2013-11-18 08:42:00,
2013-11-18 03:52:00,70.0,69.0,-100.00,SW,230,4.0,9.0,98,0.00,,,0.05,0.000000,,2013-11-18 08:52:00,
2013-11-18 04:02:00,70.0,69.0,-100.00,SW,230,4.0,9.0,98,0.00,,,0.05,0.000000,,2013-11-18 09:02:00,
2013-11-18 04:12:00,70.0,69.0,-100.00,SW,230,4.0,9.0,98,0.00,,,0.05,0.000000,,2013-11-18 09:12:00,
2013-11-18 04:43:00,71.0,70.0,-100.00,SW,229,5.0,12.0,96,0.00,,,0.05,0.000000,,2013-11-18 09:43:00,
2013-11-18 04:53:00,71.0,70.0,-100.00,SW,229,5.0,12.0,96,0.00,,,0.05,0.000000,,2013-11-18 09:53:00,
2013-11-18 05:03:00,71.0,70.0,-100.00,SW,229,5.0,12.0,96,0.00,,,0.05,0.000000,,2013-11-18 10:03:00,
2013-11-18 05:13:00,71.0,70.0,-100.00,SW,229,5.0,12.0,96,0.00,,,0.05,0.000000,,2013-11-18 10:13:00,
2013-11-18 05:43:00,71.0,69.0,-100.00,WSW,240,4.0,11.0,94,0.00,,,0.05,0.000000,,2013-11-18 10:43:00,
2013-11-18 05:53:00,71.0,69.0,-100.00,WSW,240,4.0,11.0,94,0.00,,,0.05,0.000000,,2013-11-18 10:53:00,
2013-11-18 06:02:00,71.0,69.0,-100.00,WSW,240,4.0,11.0,94,0.00,,,0.05,0.000000,,2013-11-18 11:02:00,
2013-11-18 06:12:00,71.0,69.0,-100.00,WSW,240,4.0,11.0,94,0.00,,,0.05,0.000000,,2013-11-18 11:12:00,
2013-11-18 06:42:00,71.0,70.0,-100.00,SW,217,3.0,9.0,96,0.00,,,0.05,0.000000,,2013-11-18 11:42:00,
2013-11-18 06:53:00,71.0,70.0,-100.00,SW,217,3.0,9.0,96,0.00,,,0.05,0.000000,,2013-11-18 11:53:00,
2013-11-18 07:02:00,71.0,70.0,-100.00,SW,217,3.0,9.0,96,0.00,,,0.05,0.000000,,2013-11-18 12:02:00,
2013-11-18 07:12:00,71.0,70.0,-100.00,SW,217,3.0,9.0,96,0.00,,,0.05,0.000000,,2013-11-18 12:12:00,
2013-11-18 07:42:00,71.0,70.0,-100.00,SSW,210,3.0,8.0,96,0.00,,,0.05,7.000000,,2013-11-18 12:42:00,
2013-11-18 07:52:00,71.0,70.0,-100.00,SSW,210,3.0,8.0,96,0.00,,,0.05,7.000000,,2013-11-18 12:52:00,
2013-11-18 08:01:00,71.0,70.0,-100.00,SSW,210,3.0,8.0,96,0.00,,,0.05,7.000000,,2013-11-18 13:01:00,
2013-11-18 08:11:00,71.0,70.0,-100.00,SSW,210,3.0,8.0,96,0.00,,,0.05,7.000000,,2013-11-18 13:11:00,
2013-11-18 08:42:00,71.0,69.0,-100.00,West,265,4.0,12.0,95,0.00,,,0.05,23.000000,,2013-11-18 13:42:00,
2013-11-18 08:52:00,71.0,69.0,-100.00,West,265,4.0,12.0,95,0.00,,,0.05,23.000000,,2013-11-18 13:52:00,
2013-11-18 09:02:00,71.0,69.0,-100.00,West,265,4.0,12.0,95,0.00,,,0.05,23.000000,,2013-11-18 14:02:00,
2013-11-18 09:11:00,71.0,69.0,-100.00,West,265,4.0,12.0,95,0.00,,,0.05,23.000000,,2013-11-18 14:11:00,
2013-11-18 09:42:00,76.0,71.0,-100.00,WSW,255,4.0,9.0,85,0.00,,,0.05,322.000000,,2013-11-18 14:42:00,
2013-11-18 09:52:00,76.0,71.0,-100.00,WSW,255,4.0,9.0,85,0.00,,,0.05,322.000000,,2013-11-18 14:52:00,
2013-11-18 10:02:00,76.0,71.0,-100.00,WSW,255,4.0,9.0,85,0.00,,,0.05,322.000000,,2013-11-18 15:02:00,
2013-11-18 10:11:00,76.0,71.0,-100.00,WSW,255,4.0,9.0,85,0.00,,,0.05,322.000000,,2013-11-18 15:11:00,
2013-11-18 10:43:00,78.0,71.0,-100.00,West,261,6.0,13.0,79,0.00,,,0.05,465.000000,,2013-11-18 15:43:00,
2013-11-18 10:54:00,78.0,71.0,-100.00,West,261,6.0,13.0,79,0.00,,,0.05,465.000000,,2013-11-18 15:54:00,
2013-11-18 11:03:00,78.0,71.0,-100.00,West,261,6.0,13.0,79,0.00,,,0.05,465.000000,,2013-11-18 16:03:00,
2013-11-18 11:13:00,78.0,71.0,-100.00,West,261,6.0,13.0,79,0.00,,,0.05,465.000000,,2013-11-18 16:13:00,
2013-11-18 11:43:00,78.0,68.0,-100.00,WSW,258,7.0,15.0,71,0.00,,,0.05,455.000000,,2013-11-18 16:43:00,
2013-11-18 11:53:00,78.0,68.0,-100.00,WSW,258,7.0,15.0,71,0.00,,,0.05,455.000000,,2013-11-18 16:53:00,
2013-11-18 12:02:00,78.0,68.0,-100.00,WSW,258,7.0,15.0,71,0.00,,,0.05,455.000000,,2013-11-18 17:02:00,
2013-11-18 12:12:00,78.0,68.0,-100.00,WSW,258,7.0,15.0,71,0.00,,,0.05,455.000000,,2013-11-18 17:12:00,
2013-11-18 12:43:00,81.0,69.0,-100.00,West,266,6.0,10.0,66,0.00,,,0.05,681.000000,,2013-11-18 17:43:00,
2013-11-18 12:52:00,81.0,69.0,-100.00,West,266,6.0,10.0,66,0.00,,,0.05,681.000000,,2013-11-18 17:52:00,
2013-11-18 13:02:00,81.0,69.0,-100.00,West,266,6.0,10.0,66,0.00,,,0.05,681.000000,,2013-11-18 18:02:00,
2013-11-18 13:12:00,81.0,69.0,-100.00,West,266,6.0,10.0,66,0.00,,,0.05,681.000000,,2013-11-18 18:12:00,
2013-11-18 13:42:00,82.0,68.0,-100.00,SW,232,4.0,15.0,63,0.00,,,0.05,676.000000,,2013-11-18 18:42:00,
2013-11-18 13:52:00,82.0,68.0,-100.00,SW,232,4.0,15.0,63,0.00,,,0.05,676.000000,,2013-11-18 18:52:00,
2013-11-18 14:01:00,82.0,68.0,-100.00,SW,232,4.0,15.0,63,0.00,,,0.05,676.000000,,2013-11-18 19:01:00,
2013-11-18 14:11:00,82.0,68.0,-100.00,SW,232,4.0,15.0,63,0.00,,,0.05,676.000000,,2013-11-18 19:11:00,
2013-11-18 14:42:00,80.0,68.0,-100.00,West,262,5.0,12.0,67,0.00,,,0.05,363.000000,,2013-11-18 19:42:00,
2013-11-18 14:52:00,80.0,68.0,-100.00,West,262,5.0,12.0,67,0.00,,,0.05,363.000000,,2013-11-18 19:52:00,
2013-11-18 15:01:00,80.0,68.0,-100.00,West,262,5.0,12.0,67,0.00,,,0.05,363.000000,,2013-11-18 20:01:00,
2013-11-18 15:11:00,80.0,68.0,-100.00,West,262,5.0,12.0,67,0.00,,,0.05,363.000000,,2013-11-18 20:11:00,
2013-11-18 15:52:00,79.0,70.0,-100.00,West,280,5.0,11.0,74,0.00,,,0.05,275.000000,,2013-11-18 20:52:00,
2013-11-18 16:02:00,79.0,70.0,-100.00,West,280,5.0,11.0,74,0.00,,,0.05,275.000000,,2013-11-18 21:02:00,
2013-11-18 16:12:00,79.0,70.0,-100.00,West,280,5.0,11.0,74,0.00,,,0.05,275.000000,,2013-11-18 21:12:00,
2013-11-18 16:43:00,74.0,68.0,-100.00,South,170,2.0,9.0,81,0.00,,,0.05,86.000000,,2013-11-18 21:43:00,
2013-11-18 16:54:00,74.0,68.0,-100.00,South,170,2.0,9.0,81,0.00,,,0.05,86.000000,,2013-11-18 21:54:00,
2013-11-18 17:03:00,74.0,68.0,-100.00,South,170,2.0,9.0,81,0.00,,,0.05,86.000000,,2013-11-18 22:03:00,
2013-11-18 17:13:00,74.0,68.0,-100.00,South,170,2.0,9.0,81,0.00,,,0.05,86.000000,,2013-11-18 22:13:00,
2013-11-18 17:43:00,73.0,65.0,-100.00,WNW,296,4.0,6.0,77,0.00,,,0.05,17.000000,,2013-11-18 22:43:00,
2013-11-18 17:53:00,73.0,65.0,-100.00,WNW,296,4.0,6.0,77,0.00,,,0.05,17.000000,,2013-11-18 22:53:00,
2013-11-18 18:02:00,73.0,65.0,-100.00,WNW,296,4.0,6.0,77,0.00,,,0.05,17.000000,,2013-11-18 23:02:00,
2013-11-18 18:12:00,73.0,65.0,-100.00,WNW,296,4.0,6.0,77,0.00,,,0.05,17.000000,,2013-11-18 23:12:00,
2013-11-18 18:42:00,69.0,59.0,-100.00,NW,319,3.0,5.0,70,0.00,,,0.05,0.000000,,2013-11-18 23:42:00,
2013-11-18 18:52:00,69.0,59.0,-100.00,NW,319,3.0,5.0,70,0.00,,,0.05,0.000000,,2013-11-18 23:52:00,
2013-11-18 19:02:00,69.0,59.0,-100.00,NW,319,3.0,5.0,70,0.00,,,0.05,0.000000,,2013-11-19 00:02:00,
2013-11-18 19:11:00,69.0,59.0,-100.00,NW,319,3.0,5.0,70,0.00,,,0.05,0.000000,,2013-11-19 00:11:00,
2013-11-18 19:42:00,66.0,57.0,-100.00,NNW,341,1.0,7.0,73,0.00,,,0.05,0.000000,,2013-11-19 00:42:00,
2013-11-18 19:52:00,66.0,57.0,-100.00,NNW,341,1.0,7.0,73,0.00,,,0.05,0.000000,,2013-11-19 00:52:00,
2013-11-18 20:02:00,66.0,57.0,-100.00,NNW,341,1.0,7.0,73,0.00,,,0.05,0.000000,,2013-11-19 01:02:00,
2013-11-18 20:11:00,66.0,57.0,-100.00,NNW,341,1.0,7.0,73,0.00,,,0.05,0.000000,,2013-11-19 01:11:00,
2013-11-18 20:42:00,62.0,58.0,-100.00,ESE,120,0.0,0.0,86,0.00,,,0.04,0.000000,,2013-11-19 01:42:00,
2013-11-18 20:52:00,62.0,58.0,-100.00,ESE,120,0.0,0.0,86,0.00,,,0.04,0.000000,,2013-11-19 01:52:00,
2013-11-18 21:01:00,62.0,58.0,-100.00,ESE,120,0.0,0.0,86,0.00,,,0.04,0.000000,,2013-11-19 02:01:00,
2013-11-18 21:12:00,62.0,58.0,-100.00,ESE,120,0.0,0.0,86,0.00,,,0.04,0.000000,,2013-11-19 02:12:00,
2013-11-18 21:42:00,64.0,55.0,-100.00,North,9,4.0,10.0,72,0.00,,,0.04,0.000000,,2013-11-19 02:42:00,
2013-11-18 21:52:00,64.0,55.0,-100.00,North,9,4.0,10.0,72,0.00,,,0.04,0.000000,,2013-11-19 02:52:00,
2013-11-18 22:02:00,64.0,55.0,-100.00,North,9,4.0,10.0,72,0.00,,,0.04,0.000000,,2013-11-19 03:02:00,
2013-11-18 22:11:00,64.0,55.0,-100.00,North,9,4.0,10.0,72,0.00,,,0.04,0.000000,,2013-11-19 03:11:00,
2013-11-18 22:43:00,61.0,52.0,-100.00,North,352,3.0,6.0,71,0.00,,,0.03,0.000000,,2013-11-19 03:43:00,
2013-11-18 22:54:00,61.0,52.0,-100.00,North,352,3.0,6.0,71,0.00,,,0.03,0.000000,,2013-11-19 03:54:00,
2013-11-18 23:13:00,61.0,52.0,-100.00,North,352,3.0,6.0,71,0.00,,,0.03,0.000000,,2013-11-19 04:13:00,
2013-11-18 23:42:00,59.0,52.0,-100.00,North,350,6.0,8.0,77,0.00,,,0.03,0.000000,,2013-11-19 04:42:00,
2013-11-18 23:52:00,59.0,52.0,-100.00,North,350,6.0,8.0,77,0.00,,,0.03,0.000000,,2013-11-19 04:52:00,